Time;durP1;ratioP1;P1;durP2;ratioP2;P2;SDS_P1;SDS_P2;PMS_P1;PMS_P2;Temp;Humidity;BMP_temperature;BMP_pressure;BME280_temperature;BME280_humidity;BME280_pressure;Samples;Min_cycle;Max_cycle;Signal;HPM_P1;HPM_P2
2022/11/11 00:00:27;;;;;;;;;14.25;9.25;;;;;12.92;70.20;102587.16;4864702;29;45518;-66
2022/11/11 00:02:54;;;;;;;;;9.50;9.50;;;;;12.95;70.13;102591.59;4847564;29;45299;-66
2022/11/11 00:05:20;;;;;;;;;12.25;10.00;;;;;12.75;70.30;102563.25;4847542;29;47103;-66
2022/11/11 00:07:46;;;;;;;;;13.25;10.75;;;;;12.76;70.68;102565.03;4864382;29;45501;-66
2022/11/11 00:10:11;;;;;;;;;8.00;8.00;;;;;12.98;70.36;102589.75;4864696;29;45496;-66
2022/11/11 00:12:37;;;;;;;;;7.25;7.25;;;;;13.00;70.54;102591.53;4864422;29;45405;-66
2022/11/11 00:15:02;;;;;;;;;9.75;9.00;;;;;13.03;70.44;102589.72;4864044;29;45503;-66
2022/11/11 00:25:40;;;;;;;;;11.50;10.00;;;;;12.82;70.21;102544.44;4867385;29;45359;-66
2022/11/11 00:28:05;;;;;;;;;10.25;9.25;;;;;12.95;70.44;102570.16;4867210;29;45508;-66
2022/11/11 00:30:31;;;;;;;;;7.50;7.50;;;;;13.01;70.33;102583.47;4867856;29;45674;-66
2022/11/11 00:32:57;;;;;;;;;10.00;8.75;;;;;12.91;70.38;102568.41;4865884;29;46452;-66
2022/11/11 00:38:44;;;;;;;;;10.75;9.50;;;;;12.97;70.44;102579.06;4867108;29;45473;-66
2022/11/11 00:41:00;;;;;;;;;12.00;9.00;;;;;12.93;70.48;102571.94;4867152;29;45511;-66
2022/11/11 00:43:25;;;;;;;;;8.00;8.00;;;;;12.96;70.36;102577.28;4867157;29;45673;-66
2022/11/11 00:45:51;;;;;;;;;8.50;8.00;;;;;13.01;70.13;102596.00;4865732;29;47009;-66
2022/11/11 00:51:00;;;;;;;;;7.75;7.75;;;;;12.95;70.06;102592.47;4867399;29;45440;-66
2022/11/11 00:53:28;;;;;;;;;8.00;8.00;;;;;13.01;70.29;102604.03;4850633;29;45662;-66
2022/11/11 00:55:55;;;;;;;;;8.25;8.25;;;;;13.01;70.31;102604.03;4866994;29;46116;-66
2022/11/11 00:58:21;;;;;;;;;8.25;7.75;;;;;12.93;70.17;102605.03;4866801;29;45493;-66
2022/11/11 01:00:49;;;;;;;;;11.00;8.50;;;;;12.85;69.91;102593.50;4865973;29;45271;-66
2022/11/11 01:03:15;;;;;;;;;7.50;6.75;;;;;12.97;70.14;102621.94;4866741;29;45536;-67
2022/11/11 01:05:40;;;;;;;;;7.50;6.00;;;;;12.90;70.08;102609.53;4867063;29;46229;-66
2022/11/11 01:08:05;;;;;;;;;6.75;6.75;;;;;12.77;70.18;102585.56;4865522;29;45691;-66
2022/11/11 01:10:37;;;;;;;;;7.00;6.00;;;;;12.83;69.96;102584.59;4867240;29;45345;-66
2022/11/11 01:13:13;;;;;;;;;5.50;3.50;;;;;12.95;70.39;102597.84;4865154;29;45596;-68
2022/11/11 01:15:40;;;;;;;;;8.25;7.25;;;;;12.91;70.06;102597.88;4866892;29;46588;-69
2022/11/11 01:18:06;;;;;;;;;9.75;9.75;;;;;12.86;69.96;102580.97;4866698;29;45322;-68
2022/11/11 01:20:32;;;;;;;;;10.25;9.25;;;;;12.84;70.00;102591.72;4849872;29;45498;-69
2022/11/11 01:22:57;;;;;;;;;8.25;8.00;;;;;12.90;70.37;102599.69;4849856;29;45545;-68
2022/11/11 01:25:22;;;;;;;;;8.75;7.50;;;;;12.87;69.98;102585.44;4866781;29;45624;-68
2022/11/11 01:27:48;;;;;;;;;11.00;10.50;;;;;12.95;70.01;102603.19;4866317;29;45360;-69
2022/11/11 01:30:13;;;;;;;;;6.50;5.50;;;;;12.88;69.93;102584.53;4849999;29;45482;-68
2022/11/11 01:32:39;;;;;;;;;13.50;11.00;;;;;12.87;69.95;102594.38;4866551;29;45535;-68
2022/11/11 01:35:05;;;;;;;;;14.75;10.50;;;;;12.89;70.17;102592.53;4866505;29;45743;-68
2022/11/11 01:37:34;;;;;;;;;13.00;11.75;;;;;12.85;70.21;102596.19;4866360;29;45429;-68
2022/11/11 01:40:00;;;;;;;;;9.00;6.25;;;;;12.91;69.88;102601.47;4866442;29;45405;-68
2022/11/11 01:42:26;;;;;;;;;9.00;8.00;;;;;12.71;69.80;102568.66;4866471;29;45324;-68
2022/11/11 01:44:51;;;;;;;;;7.25;7.25;;;;;12.82;69.65;102598.03;4866299;29;46550;-68
2022/11/11 01:47:18;;;;;;;;;10.50;8.50;;;;;12.75;70.08;102590.03;4866451;29;45390;-68
2022/11/11 01:49:49;;;;;;;;;6.50;5.25;;;;;12.69;70.12;102581.19;4865323;29;45469;-68
2022/11/11 01:52:17;;;;;;;;;10.25;9.25;;;;;12.80;70.06;102595.34;4866198;29;45326;-68
2022/11/11 01:54:52;;;;;;;;;7.75;6.75;;;;;12.83;70.30;102600.69;4849407;29;47363;-68
2022/11/11 01:57:33;;;;;;;;;8.00;6.75;;;;;12.85;70.04;102614.06;4864955;29;45648;-66
2022/11/11 02:00:12;;;;;;;;;12.00;12.00;;;;;12.85;69.97;102628.34;4866178;29;45500;-66
2022/11/11 02:02:44;;;;;;;;;11.00;8.75;;;;;12.86;70.11;102629.22;4866157;29;45413;-66
2022/11/11 02:08:00;;;;;;;;;10.25;9.00;;;;;12.86;70.01;102631.91;4866078;29;45301;-66
2022/11/11 02:10:29;;;;;;;;;7.75;6.25;;;;;12.84;69.99;102625.69;4866416;29;45392;-66
2022/11/11 02:15:39;;;;;;;;;10.75;9.75;;;;;12.87;69.91;102628.34;4866000;29;45435;-66
2022/11/11 02:18:04;;;;;;;;;6.75;6.75;;;;;12.86;69.85;102611.34;4866041;29;45402;-66
2022/11/11 02:20:36;;;;;;;;;9.75;7.00;;;;;12.86;69.91;102605.97;4866067;29;45524;-66
2022/11/11 02:23:18;;;;;;;;;8.75;8.00;;;;;12.87;69.68;102604.22;4865872;29;45415;-66
2022/11/11 02:25:47;;;;;;;;;5.00;5.00;;;;;12.83;69.69;102597.09;4865885;29;45461;-66
2022/11/11 02:28:14;;;;;;;;;8.75;8.75;;;;;12.82;69.79;102606.94;4865783;29;45369;-66
2022/11/11 02:30:39;;;;;;;;;9.25;6.50;;;;;12.81;69.97;102601.59;4865971;29;45333;-66
2022/11/11 02:33:04;;;;;;;;;7.00;7.00;;;;;12.82;70.06;102609.63;4865747;29;47820;-66
2022/11/11 02:35:32;;;;;;;;;9.25;8.00;;;;;12.78;69.94;102603.41;4865632;29;46494;-66
2022/11/11 02:37:59;;;;;;;;;7.25;7.25;;;;;12.79;69.96;102612.34;4865495;29;45746;-68
2022/11/11 02:40:31;;;;;;;;;11.50;8.00;;;;;12.78;69.87;102606.09;4865709;29;45552;-68
2022/11/11 02:42:57;;;;;;;;;8.75;8.25;;;;;12.75;69.99;102598.09;4865545;29;45419;-68
2022/11/11 02:45:22;;;;;;;;;13.50;10.25;;;;;12.70;70.01;102607.09;4865081;29;45383;-68
2022/11/11 02:47:48;;;;;;;;;11.00;8.25;;;;;12.68;69.87;102604.44;4865258;29;45413;-68
2022/11/11 02:50:13;;;;;;;;;14.00;9.50;;;;;12.65;69.86;102604.47;4865518;29;45516;-68
2022/11/11 02:52:39;;;;;;;;;8.25;8.00;;;;;12.62;70.05;102592.91;4865354;29;45378;-68
2022/11/11 02:55:05;;;;;;;;;12.00;10.50;;;;;12.66;70.31;102594.63;4865265;29;45487;-68
2022/11/11 02:57:31;;;;;;;;;10.50;10.50;;;;;12.60;69.99;102572.34;4865393;29;45598;-68
2022/11/11 02:59:59;;;;;;;;;7.00;7.00;;;;;12.67;69.83;102594.59;4865313;29;45480;-68
2022/11/11 03:02:26;;;;;;;;;6.00;6.00;;;;;12.73;70.05;102612.38;4865280;29;45484;-68
2022/11/11 03:04:55;;;;;;;;;9.50;8.00;;;;;12.68;70.05;102607.13;4865254;29;46072;-68
2022/11/11 03:07:21;;;;;;;;;7.75;6.25;;;;;12.67;69.92;102601.78;4865193;29;45476;-68
2022/11/11 03:09:46;;;;;;;;;7.75;7.50;;;;;12.69;69.76;102594.59;4864007;29;45503;-68
2022/11/11 03:12:12;;;;;;;;;11.75;8.50;;;;;12.73;69.62;102594.53;4865183;29;45328;-66
2022/11/11 03:14:37;;;;;;;;;11.50;7.00;;;;;12.75;69.70;102602.56;4847903;29;47103;-66
2022/11/11 03:19:46;;;;;;;;;17.50;14.25;;;;;12.72;69.38;102591.88;4865066;29;45435;-66
2022/11/11 03:22:12;;;;;;;;;14.50;14.00;;;;;12.68;69.41;102576.72;4847786;29;45546;-66
2022/11/11 03:27:21;;;;;;;;;13.00;11.50;;;;;12.63;69.36;102567.84;4864872;29;45385;-66
2022/11/11 03:29:46;;;;;;;;;10.50;10.50;;;;;12.71;69.49;102590.09;4863555;29;45586;-66
2022/11/11 03:32:12;;;;;;;;;9.00;7.25;;;;;12.71;69.64;102600.81;4865010;29;45417;-66
2022/11/11 03:34:38;;;;;;;;;11.50;8.00;;;;;12.48;69.43;102564.47;4864863;29;45340;-66
2022/11/11 03:39:51;;;;;;;;;7.00;6.00;;;;;12.40;69.42;102558.31;4864775;29;45459;-66
2022/11/11 03:42:17;;;;;;;;;6.75;6.50;;;;;12.42;69.32;102570.75;4847994;29;45695;-66
2022/11/11 03:44:42;;;;;;;;;11.50;8.00;;;;;12.56;69.38;102591.16;4847724;29;48398;-66
2022/11/11 03:47:07;;;;;;;;;6.50;6.50;;;;;12.58;69.25;102592.94;4864714;29;45365;-66
2022/11/11 03:49:33;;;;;;;;;8.75;8.00;;;;;12.61;69.47;102594.66;4864895;29;45297;-66
2022/11/11 03:51:58;;;;;;;;;8.75;8.25;;;;;12.62;69.35;102612.53;4864395;29;45516;-66
2022/11/11 03:54:23;;;;;;;;;7.00;6.25;;;;;12.62;69.39;102612.53;4864706;29;45471;-66
2022/11/11 03:56:49;;;;;;;;;9.50;5.75;;;;;12.47;69.42;102585.91;4847779;29;46118;-66
2022/11/11 03:59:14;;;;;;;;;7.00;7.00;;;;;12.60;69.43;102611.66;4866809;29;45606;-66
2022/11/11 04:21:41;;;;;;;;;7.75;6.75;;;;;12.47;69.82;102618.94;4867610;29;45365;-66
2022/11/11 04:23:48;;;;;;;;;7.25;6.75;;;;;12.34;69.86;102595.88;4867716;29;45377;-66
2022/11/11 04:26:13;;;;;;;;;11.00;8.00;;;;;12.49;69.88;102618.91;4850647;29;47344;-66
2022/11/11 04:31:23;;;;;;;;;12.25;11.00;;;;;12.40;69.71;102602.03;4867591;29;45377;-66
2022/11/11 04:33:49;;;;;;;;;7.50;7.00;;;;;12.42;69.90;102602.91;4867440;29;45471;-66
2022/11/11 04:36:14;;;;;;;;;9.25;8.00;;;;;12.30;69.87;102583.41;4867151;29;45503;-66
2022/11/11 04:41:23;;;;;;;;;9.50;7.50;;;;;12.50;70.22;102618.91;4867532;29;45500;-66
2022/11/11 04:46:33;;;;;;;;;8.25;7.75;;;;;12.46;69.98;102603.75;4867230;29;45434;-66
2022/11/11 04:48:58;;;;;;;;;6.00;6.00;;;;;12.46;70.10;102600.19;4867139;29;45448;-66
2022/11/11 04:52:25;;;;;;;;;9.25;6.00;;;;;12.51;70.40;102614.44;4850151;29;45471;-66
2022/11/11 04:54:09;;;;;;;;;7.25;6.75;;;;;12.50;70.09;102623.38;4854721;29;45512;-66
2022/11/11 04:56:46;;;;;;;;;9.50;8.00;;;;;12.48;70.16;102615.38;4867024;29;46089;-66
2022/11/11 04:59:14;;;;;;;;;6.50;6.50;;;;;12.32;70.29;102592.31;4865758;29;45604;-66
2022/11/11 05:04:23;;;;;;;;;7.50;7.50;;;;;12.48;70.35;102610.00;4867065;29;45478;-66
2022/11/11 05:09:33;;;;;;;;;10.00;8.75;;;;;12.44;70.20;102596.66;4866575;29;45385;-66
2022/11/11 05:11:58;;;;;;;;;11.00;11.00;;;;;12.29;70.18;102579.84;4867090;29;45228;-66
2022/11/11 05:22:41;;;;;;;;;7.75;6.00;;;;;12.49;70.32;102600.16;4866887;29;45511;-66
2022/11/11 05:25:28;;;;;;;;;12.00;10.50;;;;;12.34;70.07;102582.47;4866883;29;45541;-66
2022/11/11 05:27:56;;;;;;;;;9.50;7.75;;;;;12.45;70.26;102601.13;4866463;29;45908;-66
2022/11/11 05:30:23;;;;;;;;;13.75;10.75;;;;;12.51;70.22;102606.38;4866728;29;45258;-66
2022/11/11 05:32:49;;;;;;;;;10.75;7.00;;;;;12.50;70.25;102616.22;4866597;29;45374;-66
2022/11/11 05:35:16;;;;;;;;;6.50;6.00;;;;;12.44;70.19;102607.38;4866691;29;45385;-66
2022/11/11 05:37:42;;;;;;;;;7.75;6.00;;;;;12.49;70.02;102617.13;4866467;29;45360;-66
2022/11/11 05:40:09;;;;;;;;;7.75;6.50;;;;;12.45;69.75;102615.41;4866384;29;45590;-66
2022/11/11 05:42:34;;;;;;;;;5.75;5.75;;;;;12.47;69.78;102615.38;4866406;29;45372;-66
2022/11/11 05:45:00;;;;;;;;;6.00;5.25;;;;;12.42;69.89;102610.06;4866687;29;45379;-66
2022/11/11 05:47:25;;;;;;;;;6.00;6.00;;;;;12.39;69.93;102599.38;4866203;29;45597;-66
2022/11/11 05:49:50;;;;;;;;;6.75;5.00;;;;;12.45;70.02;102614.50;4866562;29;45432;-66
2022/11/11 05:52:16;;;;;;;;;5.00;5.00;;;;;12.35;69.89;102597.66;4866209;29;45535;-66
2022/11/11 05:54:42;;;;;;;;;6.25;6.00;;;;;12.34;69.86;102598.53;4866429;29;45560;-66
2022/11/11 05:57:08;;;;;;;;;9.50;8.00;;;;;12.38;69.86;102616.38;4866125;29;46030;-68
2022/11/11 05:59:33;;;;;;;;;8.00;6.75;;;;;12.28;69.70;102601.28;4866197;29;45364;-68
2022/11/11 06:01:58;;;;;;;;;7.75;5.25;;;;;12.36;69.87;102615.47;4866311;29;45455;-68
2022/11/11 06:04:24;;;;;;;;;5.00;3.75;;;;;12.35;70.06;102619.06;4849230;29;45353;-68
2022/11/11 06:06:50;;;;;;;;;7.75;6.50;;;;;12.30;70.04;102602.16;4865873;29;45437;-68
2022/11/11 06:09:15;;;;;;;;;5.50;4.25;;;;;12.36;69.81;102608.34;4849378;29;45323;-68
2022/11/11 06:11:41;;;;;;;;;6.00;5.00;;;;;12.08;69.87;102572.00;4864881;29;45406;-68
2022/11/11 06:14:06;;;;;;;;;5.00;5.00;;;;;12.36;69.78;102623.50;4865671;29;45403;-68
2022/11/11 06:16:31;;;;;;;;;4.00;4.00;;;;;12.35;69.70;102621.75;4865804;29;45441;-68
2022/11/11 06:18:58;;;;;;;;;6.50;4.50;;;;;12.25;69.74;102606.69;4865995;29;45368;-69
2022/11/11 06:21:23;;;;;;;;;6.50;5.00;;;;;12.34;69.81;102622.63;4863700;29;45518;-68
2022/11/11 06:23:49;;;;;;;;;6.00;5.00;;;;;12.23;69.70;102620.97;4866144;29;45435;-68
2022/11/11 06:26:15;;;;;;;;;8.00;6.25;;;;;12.23;69.82;102620.06;4865583;29;46282;-68
2022/11/11 06:28:46;;;;;;;;;5.50;5.50;;;;;12.26;69.62;102637.88;4865813;29;45390;-68
2022/11/11 06:31:15;;;;;;;;;6.75;6.75;;;;;12.28;69.69;102633.41;4865849;29;45491;-68
2022/11/11 06:33:41;;;;;;;;;8.25;5.75;;;;;12.11;69.71;102610.38;4849528;29;45396;-68
2022/11/11 06:36:09;;;;;;;;;5.00;5.00;;;;;12.27;69.62;102642.34;4865297;29;46749;-68
2022/11/11 06:38:34;;;;;;;;;11.50;6.50;;;;;12.23;70.02;102637.03;4864277;29;45441;-68
2022/11/11 06:40:59;;;;;;;;;4.75;4.00;;;;;12.17;69.96;102639.75;4865736;29;45437;-68
2022/11/11 06:43:25;;;;;;;;;4.75;4.75;;;;;12.20;70.14;102642.41;4865552;29;45833;-68
2022/11/11 06:45:52;;;;;;;;;4.00;4.00;;;;;12.23;70.15;102639.69;4865400;29;46009;-68
2022/11/11 06:48:18;;;;;;;;;6.75;6.00;;;;;12.15;70.28;102635.31;4865627;29;45757;-66
2022/11/11 06:50:44;;;;;;;;;7.75;5.75;;;;;12.20;70.13;102654.91;4865467;29;45408;-66
2022/11/11 06:53:12;;;;;;;;;4.00;4.00;;;;;12.14;70.25;102655.81;4865214;29;45498;-66
2022/11/11 06:55:38;;;;;;;;;5.75;4.75;;;;;12.15;69.99;102654.94;4865166;29;45307;-69
2022/11/11 06:58:07;;;;;;;;;7.00;6.00;;;;;12.13;70.37;102654.06;4865315;29;45337;-68
2022/11/11 07:00:34;;;;;;;;;4.25;4.25;;;;;12.18;70.34;102672.78;4865291;29;45465;-69
2022/11/11 07:03:00;;;;;;;;;4.50;4.50;;;;;12.11;70.51;102653.22;4865219;29;45501;-68
2022/11/11 07:05:25;;;;;;;;;7.50;6.25;;;;;12.16;70.27;102661.16;4865230;29;46378;-69
2022/11/11 07:07:51;;;;;;;;;4.00;4.00;;;;;12.11;70.40;102642.50;4865124;29;45381;-69
2022/11/11 07:10:16;;;;;;;;;7.25;5.50;;;;;12.08;70.17;102638.94;4865369;29;45898;-69
2022/11/11 07:12:42;;;;;;;;;5.75;5.75;;;;;12.18;70.54;102651.38;4864805;29;45358;-68
2022/11/11 07:15:08;;;;;;;;;6.00;6.00;;;;;12.20;70.32;102661.13;4865014;29;46966;-68
2022/11/11 07:17:34;;;;;;;;;7.75;5.00;;;;;12.25;70.17;102662.91;4865017;29;45314;-69
2022/11/11 07:19:59;;;;;;;;;5.00;5.00;;;;;12.05;70.51;102622.00;4848420;29;45362;-68
2022/11/11 07:22:24;;;;;;;;;7.50;5.50;;;;;12.23;70.44;102650.41;4865136;29;45322;-68
2022/11/11 07:24:50;;;;;;;;;5.50;5.50;;;;;12.09;70.48;102616.63;4864868;29;46271;-68
2022/11/11 07:27:15;;;;;;;;;7.25;7.25;;;;;12.26;70.53;102644.13;4864964;29;45390;-66
2022/11/11 07:29:40;;;;;;;;;11.25;6.50;;;;;12.23;70.48;102647.72;4864866;29;45421;-66
2022/11/11 07:32:06;;;;;;;;;7.00;6.00;;;;;12.15;70.62;102638.88;4864736;29;45557;-66
2022/11/11 07:34:31;;;;;;;;;7.25;7.25;;;;;12.20;70.68;102653.09;4864743;29;46538;-68
2022/11/11 07:36:57;;;;;;;;;8.25;7.75;;;;;12.03;70.52;102620.25;4864973;29;45696;-68
2022/11/11 07:39:22;;;;;;;;;7.00;7.00;;;;;12.16;70.79;102645.09;4864712;29;45420;-68
2022/11/11 07:41:47;;;;;;;;;6.25;6.00;;;;;12.18;70.91;102646.00;4864803;29;45544;-66
2022/11/11 07:44:13;;;;;;;;;10.75;6.50;;;;;12.25;70.69;102655.75;4847594;29;47867;-66
2022/11/11 07:46:38;;;;;;;;;10.50;6.50;;;;;12.20;71.00;102642.41;4848003;29;45427;-66
2022/11/11 07:49:03;;;;;;;;;6.25;5.25;;;;;12.14;70.62;102626.38;4848006;29;45400;-66
2022/11/11 07:51:29;;;;;;;;;9.25;6.00;;;;;12.25;70.92;102638.81;4864684;29;45448;-66
2022/11/11 07:53:54;;;;;;;;;10.50;7.00;;;;;12.16;70.69;102624.59;4864423;29;45389;-66
2022/11/11 07:56:19;;;;;;;;;7.00;6.00;;;;;12.08;70.70;102615.75;4864710;29;45555;-66
2022/11/11 07:58:45;;;;;;;;;6.75;6.00;;;;;12.23;70.62;102637.03;4864619;29;45370;-66
2022/11/11 08:01:10;;;;;;;;;8.50;8.50;;;;;12.21;70.59;102643.28;4847814;29;45457;-66
2022/11/11 08:03:48;;;;;;;;;10.00;5.00;;;;;12.23;70.80;102646.84;4863109;29;47450;-66
2022/11/11 08:06:14;;;;;;;;;6.00;5.50;;;;;12.27;70.91;102655.75;4847603;29;45293;-66
2022/11/11 08:08:40;;;;;;;;;7.00;7.00;;;;;12.25;70.91;102654.88;4864693;29;45698;-66
2022/11/11 08:11:05;;;;;;;;;8.25;7.25;;;;;12.20;70.85;102655.78;4864543;29;45328;-66
2022/11/11 08:13:39;;;;;;;;;6.50;6.50;;;;;12.16;71.01;102651.38;4851978;29;47449;-66
2022/11/11 08:16:10;;;;;;;;;12.00;5.75;;;;;12.18;70.69;102651.38;4864398;29;45317;-66
2022/11/11 08:18:36;;;;;;;;;6.00;6.00;;;;;12.11;70.91;102637.16;4863352;29;45502;-66
2022/11/11 08:21:03;;;;;;;;;10.00;6.25;;;;;12.08;70.72;102633.56;4864340;29;45392;-68
2022/11/11 08:23:31;;;;;;;;;4.50;4.50;;;;;12.25;70.68;102661.09;4864275;29;45549;-68
2022/11/11 08:26:06;;;;;;;;;7.00;5.75;;;;;12.15;70.54;102641.56;4863927;29;45618;-68
2022/11/11 08:28:33;;;;;;;;;8.00;6.50;;;;;12.06;70.61;102617.53;4864348;29;45365;-68
2022/11/11 08:31:00;;;;;;;;;6.75;5.75;;;;;12.22;70.68;102648.63;4847453;29;45476;-68
2022/11/11 08:33:27;;;;;;;;;5.75;5.75;;;;;12.16;70.80;102629.97;4847333;29;46243;-68
2022/11/11 08:35:54;;;;;;;;;5.50;5.50;;;;;12.15;70.68;102624.63;4864149;29;45278;-69
2022/11/11 08:38:23;;;;;;;;;5.00;5.00;;;;;12.23;70.95;102647.72;4862902;29;45362;-68
2022/11/11 08:40:49;;;;;;;;;7.25;6.25;;;;;12.27;70.83;102647.72;4864185;29;45336;-68
2022/11/11 08:43:15;;;;;;;;;8.00;7.75;;;;;12.23;70.56;102645.06;4847147;29;47097;-68
2022/11/11 08:45:40;;;;;;;;;6.50;6.50;;;;;12.13;70.86;102640.69;4866620;29;45381;-68
2022/11/11 08:48:10;;;;;;;;;8.75;6.50;;;;;12.14;71.02;102652.28;4867528;29;45463;-68
2022/11/11 08:50:37;;;;;;;;;10.50;8.75;;;;;12.23;71.10;102660.25;4867217;29;45352;-68
2022/11/11 08:53:02;;;;;;;;;6.25;6.00;;;;;12.28;71.18;102670.88;4866952;29;45722;-68
2022/11/11 08:55:28;;;;;;;;;11.75;10.75;;;;;12.18;71.14;102659.41;4850357;29;46537;-68
2022/11/11 08:57:58;;;;;;;;;9.50;6.75;;;;;12.27;71.04;102680.72;4850201;29;45386;-69
2022/11/11 09:00:23;;;;;;;;;8.75;6.00;;;;;12.31;71.10;102686.94;4867054;29;45551;-68
2022/11/11 09:02:49;;;;;;;;;7.75;7.00;;;;;12.24;70.87;102688.78;4866832;29;45334;-68
2022/11/11 09:05:14;;;;;;;;;9.50;9.50;;;;;12.15;70.83;102670.13;4866968;29;45421;-69
2022/11/11 09:07:40;;;;;;;;;7.50;6.50;;;;;12.07;70.93;102664.81;4867032;29;45444;-68
2022/11/11 09:10:06;;;;;;;;;8.00;7.75;;;;;12.12;71.01;102679.06;4866867;29;45628;-66
2022/11/11 09:12:31;;;;;;;;;13.00;8.50;;;;;12.10;70.94;102672.84;4866540;29;45405;-66
2022/11/11 09:14:56;;;;;;;;;6.25;6.25;;;;;12.17;71.18;102679.91;4866657;29;45344;-66
2022/11/11 09:17:21;;;;;;;;;7.00;7.00;;;;;12.23;71.12;102693.25;4850017;29;45378;-66
2022/11/11 09:19:47;;;;;;;;;6.25;6.25;;;;;12.18;71.23;102680.81;4849760;29;45600;-66
2022/11/11 09:22:12;;;;;;;;;6.50;6.50;;;;;12.25;71.14;102689.69;4849669;29;46871;-66
2022/11/11 09:24:38;;;;;;;;;9.25;8.00;;;;;12.19;71.07;102672.75;4849741;29;45478;-66
2022/11/11 09:27:03;;;;;;;;;8.00;7.50;;;;;12.27;71.07;102690.56;4866823;29;45370;-66
2022/11/11 09:29:28;;;;;;;;;10.00;9.50;;;;;12.05;71.03;102658.59;4866155;29;45405;-66
2022/11/11 09:31:53;;;;;;;;;8.50;6.50;;;;;12.18;71.12;102670.09;4849829;29;47256;-66
2022/11/11 09:34:19;;;;;;;;;9.25;8.25;;;;;12.10;71.09;102662.13;4866282;29;45370;-66
2022/11/11 09:36:44;;;;;;;;;7.75;7.75;;;;;12.33;71.07;102693.16;4866603;29;45340;-66
2022/11/11 09:39:09;;;;;;;;;7.00;7.00;;;;;12.31;71.13;102697.66;4866336;29;45516;-66
2022/11/11 09:41:55;;;;;;;;;10.00;7.75;;;;;12.29;71.12;102700.34;4866225;29;45501;-66
2022/11/11 09:44:28;;;;;;;;;9.75;6.00;;;;;12.15;70.95;102678.16;4849379;29;45415;-66
2022/11/11 09:47:13;;;;;;;;;8.25;7.25;;;;;12.14;71.12;102676.38;4866455;29;45437;-66
2022/11/11 09:49:57;;;;;;;;;8.00;7.25;;;;;12.12;71.11;102671.03;4849766;29;45461;-66
2022/11/11 09:52:30;;;;;;;;;6.50;6.50;;;;;12.24;71.06;102691.44;4866114;29;45539;-66
2022/11/11 09:55:05;;;;;;;;;8.50;8.00;;;;;12.27;70.82;102702.13;4866287;29;45422;-66
2022/11/11 09:57:36;;;;;;;;;10.00;8.25;;;;;12.27;71.30;102710.19;4866266;29;45414;-68
2022/11/11 10:00:06;;;;;;;;;7.25;7.25;;;;;12.29;71.31;102704.81;4864943;29;45759;-68
2022/11/11 10:02:42;;;;;;;;;10.75;8.25;;;;;12.10;71.01;102671.94;4866216;29;45445;-68
2022/11/11 10:05:11;;;;;;;;;7.50;7.50;;;;;12.20;71.13;102685.22;4866183;29;45658;-68
2022/11/11 10:07:51;;;;;;;;;7.25;7.00;;;;;12.25;71.06;102698.59;4866206;29;45342;-69
2022/11/11 10:10:26;;;;;;;;;6.00;6.00;;;;;12.25;70.76;102692.38;4866413;29;45310;-69
2022/11/11 10:12:59;;;;;;;;;6.50;6.50;;;;;12.27;71.00;102702.13;4865621;29;46204;-68
2022/11/11 10:15:30;;;;;;;;;9.75;6.00;;;;;12.30;70.83;102702.13;4866109;29;45600;-68
2022/11/11 10:18:05;;;;;;;;;9.00;6.75;;;;;12.34;70.87;102717.25;4865989;29;45520;-68
2022/11/11 10:20:37;;;;;;;;;8.00;8.00;;;;;12.30;70.72;102701.25;4849043;29;45522;-69
2022/11/11 10:23:12;;;;;;;;;9.00;7.00;;;;;12.26;70.46;102694.13;4865633;29;46010;-68
2022/11/11 10:25:51;;;;;;;;;8.75;8.75;;;;;12.14;70.79;102685.28;4865904;29;45419;-68
2022/11/11 10:28:20;;;;;;;;;10.50;7.00;;;;;12.34;70.71;102716.38;4864468;29;45453;-68
2022/11/11 10:30:47;;;;;;;;;6.75;6.75;;;;;12.21;70.89;102692.38;4865856;29;45328;-68
2022/11/11 10:33:26;;;;;;;;;8.25;7.75;;;;;12.36;70.92;102706.53;4864367;29;47145;-68
2022/11/11 10:35:55;;;;;;;;;11.00;9.00;;;;;12.34;70.83;102697.63;4848361;29;45361;-68
2022/11/11 10:38:26;;;;;;;;;10.25;8.50;;;;;12.38;70.75;102702.06;4865598;29;45300;-68
2022/11/11 10:40:53;;;;;;;;;7.75;6.00;;;;;12.32;70.75;102699.44;4865697;29;45619;-68
2022/11/11 10:43:22;;;;;;;;;9.00;8.25;;;;;12.37;70.70;102708.31;4864039;29;46341;-69
2022/11/11 10:45:58;;;;;;;;;7.25;7.25;;;;;12.29;70.71;102691.41;4865410;29;45608;-68
2022/11/11 10:48:33;;;;;;;;;6.75;6.75;;;;;12.29;70.49;102686.94;4865613;29;45439;-68
2022/11/11 10:51:02;;;;;;;;;6.00;6.00;;;;;12.22;70.52;102678.06;4849000;29;45630;-66
2022/11/11 10:53:31;;;;;;;;;8.75;7.50;;;;;12.38;70.44;102700.28;4864889;29;47531;-66
2022/11/11 10:56:08;;;;;;;;;8.00;8.00;;;;;12.38;70.50;102700.28;4848519;29;45351;-66
2022/11/11 10:58:40;;;;;;;;;9.50;7.75;;;;;12.33;70.40;102690.47;4865297;29;45350;-66
2022/11/11 11:01:09;;;;;;;;;11.50;10.00;;;;;12.27;70.59;102677.16;4865379;29;45307;-66
2022/11/11 11:03:54;;;;;;;;;8.00;8.00;;;;;12.44;70.48;102703.78;4865133;29;46166;-66
2022/11/11 11:06:24;;;;;;;;;7.50;6.25;;;;;12.42;70.32;102706.47;4848983;29;45340;-68
2022/11/11 11:09:07;;;;;;;;;8.00;7.75;;;;;12.40;70.53;102692.22;4865023;29;45341;-68
2022/11/11 11:11:41;;;;;;;;;7.25;7.25;;;;;12.40;70.57;102676.16;4865271;29;45341;-68
2022/11/11 11:14:18;;;;;;;;;7.75;7.25;;;;;12.45;70.93;102682.34;4847958;29;47611;-68
2022/11/11 11:16:50;;;;;;;;;11.00;8.75;;;;;12.47;70.34;102683.22;4865072;29;45835;-69
2022/11/11 11:19:26;;;;;;;;;8.00;8.00;;;;;12.53;70.44;102690.28;4865256;29;45396;-68
2022/11/11 11:22:00;;;;;;;;;10.50;8.00;;;;;12.47;70.34;102663.59;4832780;29;45383;-68
2022/11/11 11:24:26;;;;;;;;;11.25;10.50;;;;;12.59;70.24;102682.22;4864941;29;45424;-68
2022/11/11 11:26:56;;;;;;;;;12.00;9.25;;;;;12.53;70.37;102674.22;4865069;29;45326;-68
2022/11/11 11:29:34;;;;;;;;;11.00;8.50;;;;;12.60;70.40;102678.66;4864922;29;45785;-68
2022/11/11 11:32:14;;;;;;;;;10.50;10.50;;;;;12.63;70.36;102677.69;4865029;29;45607;-68
2022/11/11 11:34:44;;;;;;;;;10.50;10.50;;;;;12.64;70.23;102684.84;4864791;29;46549;-69
2022/11/11 11:37:09;;;;;;;;;10.00;10.00;;;;;12.54;70.13;102667.97;4864902;29;45560;-68
2022/11/11 11:39:37;;;;;;;;;14.25;11.75;;;;;12.43;69.84;102644.00;4864811;29;45308;-68
2022/11/11 11:42:03;;;;;;;;;9.50;9.25;;;;;12.65;70.00;102670.56;4864741;29;45535;-69
2022/11/11 11:44:34;;;;;;;;;8.25;7.50;;;;;12.66;70.04;102669.63;4864735;29;46362;-68
2022/11/11 11:47:23;;;;;;;;;11.50;11.50;;;;;12.46;70.28;102638.56;4863367;29;46046;-69
2022/11/11 11:49:54;;;;;;;;;10.75;9.50;;;;;12.69;70.11;102661.56;4864990;29;45500;-68
2022/11/11 11:52:31;;;;;;;;;14.00;11.50;;;;;12.68;70.08;102651.75;4864398;29;45493;-68
2022/11/11 11:55:20;;;;;;;;;13.25;12.25;;;;;12.62;70.26;102633.09;4847633;29;46292;-68
2022/11/11 11:57:51;;;;;;;;;12.50;11.50;;;;;12.73;70.08;102656.19;4864520;29;45537;-69
2022/11/11 12:00:19;;;;;;;;;11.75;9.75;;;;;12.74;70.15;102649.00;4864758;29;45402;-69
2022/11/11 12:03:23;;;;;;;;;12.75;12.75;;;;;12.68;70.00;102641.94;4848934;29;45457;-68
2022/11/11 12:05:59;;;;;;;;;12.50;11.75;;;;;12.70;70.06;102645.47;4854470;29;45473;-68
2022/11/11 12:08:48;;;;;;;;;13.00;13.00;;;;;12.75;70.39;102643.63;4864481;29;46561;-68
2022/11/11 12:11:27;;;;;;;;;12.50;12.50;;;;;12.79;70.16;102657.88;4864441;29;45466;-68
2022/11/11 12:14:11;;;;;;;;;11.75;10.00;;;;;12.82;69.87;102657.84;4864255;29;45435;-69
2022/11/11 12:17:01;;;;;;;;;12.25;11.25;;;;;12.81;69.93;102653.38;4847369;29;46227;-68
2022/11/11 12:19:44;;;;;;;;;11.25;8.00;;;;;12.86;70.18;102654.22;4865136;29;45696;-66
2022/11/11 12:22:25;;;;;;;;;14.00;12.25;;;;;12.90;69.89;102650.63;4850845;29;45332;-66
2022/11/11 12:25:27;;;;;;;;;15.25;13.75;;;;;12.91;70.06;102636.31;4867569;29;45378;-66
2022/11/11 12:28:24;;;;;;;;;9.75;9.75;;;;;12.92;69.92;102634.53;4867091;29;46556;-66
2022/11/11 12:31:10;;;;;;;;;11.50;11.50;;;;;12.86;70.10;102616.69;4867442;29;45719;-66
2022/11/11 12:33:50;;;;;;;;;12.50;12.25;;;;;12.72;69.75;102575.81;4867620;29;45528;-66
2022/11/11 12:36:21;;;;;;;;;15.75;14.25;;;;;12.82;69.68;102593.53;4867280;29;45261;-66
2022/11/11 12:39:01;;;;;;;;;11.25;11.00;;;;;12.94;70.06;102605.91;4850235;29;47759;-66